createdAt,value
2023-04-30T00:00:15.000Z,74.17
2023-04-30T00:01:15.000Z,74.16
2023-04-30T00:02:16.000Z,74.34
2023-04-30T00:03:16.000Z,74.38
2023-04-30T00:04:15.000Z,74.45
2023-04-30T00:05:16.000Z,74.48
2023-04-30T00:06:15.000Z,74.57
2023-04-30T00:07:15.000Z,74.64
2023-04-30T00:08:15.000Z,74.75
2023-04-30T00:09:15.000Z,74.93
2023-04-30T00:10:16.000Z,75.00
2023-04-30T00:11:15.000Z,74.97
2023-04-30T00:12:16.000Z,75.01
2023-04-30T00:13:17.000Z,75.06
2023-04-30T00:14:15.000Z,75.06
2023-04-30T00:15:16.000Z,75.05
2023-04-30T00:16:16.000Z,75.10
2023-04-30T00:17:16.000Z,75.13
2023-04-30T00:18:16.000Z,75.14
2023-04-30T00:19:16.000Z,75.14
2023-04-30T00:20:16.000Z,75.07
2023-04-30T00:21:15.000Z,74.66
2023-04-30T00:22:16.000Z,75.18
2023-04-30T00:23:15.000Z,75.81
2023-04-30T00:24:16.000Z,75.85
2023-04-30T00:25:16.000Z,75.86
2023-04-30T00:26:15.000Z,76.40
2023-04-30T00:27:15.000Z,76.80
2023-04-30T00:28:16.000Z,77.17
2023-04-30T00:29:15.000Z,77.88
2023-04-30T00:30:16.000Z,77.87
2023-04-30T00:31:16.000Z,77.98
2023-04-30T00:32:16.000Z,77.86
2023-04-30T00:33:16.000Z,77.49
2023-04-30T00:34:16.000Z,77.34
2023-04-30T00:35:16.000Z,77.44
2023-04-30T00:36:16.000Z,77.37
2023-04-30T00:37:16.000Z,77.34
2023-04-30T00:38:16.000Z,77.32
2023-04-30T00:39:16.000Z,77.24
2023-04-30T00:40:16.000Z,77.40
2023-04-30T00:41:17.000Z,77.31
2023-04-30T00:42:16.000Z,77.38
2023-04-30T00:43:16.000Z,78.50
2023-04-30T00:44:16.000Z,79.05
2023-04-30T00:45:21.000Z,78.82
2023-04-30T00:46:16.000Z,79.01
2023-04-30T00:47:16.000Z,78.75
2023-04-30T00:48:17.000Z,78.47
2023-04-30T00:49:16.000Z,78.52
2023-04-30T00:50:16.000Z,78.49
2023-04-30T00:51:16.000Z,78.88
2023-04-30T00:52:16.000Z,78.51
2023-04-30T00:53:16.000Z,78.44
2023-04-30T00:54:17.000Z,78.39
2023-04-30T00:55:17.000Z,78.45
2023-04-30T00:56:16.000Z,78.30
2023-04-30T00:57:16.000Z,78.30
2023-04-30T00:58:16.000Z,79.21
2023-04-30T00:59:16.000Z,79.48
2023-04-30T01:00:16.000Z,79.99
2023-04-30T01:01:17.000Z,79.33
2023-04-30T01:02:17.000Z,79.21
2023-04-30T01:03:16.000Z,79.01
2023-04-30T01:04:16.000Z,79.21
2023-04-30T01:05:16.000Z,79.16
2023-04-30T01:06:16.000Z,79.43
2023-04-30T01:07:16.000Z,79.23
2023-04-30T01:08:16.000Z,78.98
2023-04-30T01:09:16.000Z,79.05
2023-04-30T01:10:17.000Z,79.45
2023-04-30T01:11:26.000Z,79.12
2023-04-30T01:12:25.000Z,78.97
2023-04-30T01:13:39.000Z,78.95
2023-04-30T01:14:26.000Z,79.62
2023-04-30T01:15:38.000Z,79.82
2023-04-30T01:16:29.000Z,80.18
2023-04-30T01:17:22.000Z,79.98
2023-04-30T01:18:24.000Z,79.48
2023-04-30T01:19:33.000Z,79.26
2023-04-30T01:20:18.000Z,79.22
2023-04-30T01:21:17.000Z,79.96
2023-04-30T01:22:29.000Z,79.78
2023-04-30T01:23:36.000Z,80.10
2023-04-30T01:24:26.000Z,80.07
2023-04-30T01:25:34.000Z,79.66
2023-04-30T01:26:42.000Z,79.53
2023-04-30T01:27:26.000Z,80.13
2023-04-30T01:28:20.000Z,79.88
2023-04-30T01:29:18.000Z,79.84
2023-04-30T01:30:17.000Z,79.52
2023-04-30T01:31:19.000Z,80.05
2023-04-30T01:32:16.000Z,79.67
2023-04-30T01:33:16.000Z,79.53
2023-04-30T01:34:16.000Z,79.50
2023-04-30T01:35:16.000Z,79.40
2023-04-30T01:36:39.000Z,79.34
2023-04-30T01:37:39.000Z,79.41
2023-04-30T01:38:26.000Z,79.40
2023-04-30T01:39:30.000Z,79.32
2023-04-30T01:40:22.000Z,79.09
2023-04-30T01:41:42.000Z,79.00
2023-04-30T01:42:21.000Z,78.90
2023-04-30T01:43:36.000Z,78.84
2023-04-30T01:44:27.000Z,78.81
2023-04-30T01:45:28.000Z,78.65
2023-04-30T01:46:24.000Z,78.60
2023-04-30T01:47:28.000Z,78.12
2023-04-30T01:48:27.000Z,77.35
2023-04-30T01:49:26.000Z,77.43
2023-04-30T01:50:27.000Z,77.58
2023-04-30T01:51:30.000Z,77.31
2023-04-30T01:52:38.000Z,77.11
2023-04-30T01:53:22.000Z,76.86
2023-04-30T01:54:38.000Z,76.97
2023-04-30T01:55:21.000Z,76.60
2023-04-30T01:56:25.000Z,76.72
2023-04-30T01:57:27.000Z,76.82
2023-04-30T01:58:16.000Z,76.44
2023-04-30T01:59:16.000Z,76.57
2023-04-30T02:00:16.000Z,76.24
2023-04-30T02:01:26.000Z,76.47
2023-04-30T02:02:15.000Z,77.51
2023-04-30T02:03:16.000Z,77.99
2023-04-30T02:04:15.000Z,77.65
2023-04-30T02:05:15.000Z,79.44
2023-04-30T02:06:15.000Z,79.56
2023-04-30T02:07:32.000Z,79.66
2023-04-30T02:08:15.000Z,79.30
2023-04-30T02:09:15.000Z,79.02
2023-04-30T02:10:21.000Z,78.95
2023-04-30T02:11:15.000Z,78.92
2023-04-30T02:12:15.000Z,78.83
2023-04-30T02:13:15.000Z,78.85
2023-04-30T02:14:15.000Z,78.88
2023-04-30T02:15:15.000Z,78.90
2023-04-30T02:16:15.000Z,79.43
2023-04-30T02:17:15.000Z,79.92
2023-04-30T02:18:15.000Z,78.85
2023-04-30T02:19:16.000Z,78.54
2023-04-30T02:20:15.000Z,78.78
2023-04-30T02:21:16.000Z,78.78
2023-04-30T02:22:15.000Z,78.73
2023-04-30T02:23:15.000Z,79.03
2023-04-30T02:24:15.000Z,78.89
2023-04-30T02:25:15.000Z,79.16
2023-04-30T02:26:15.000Z,78.97
2023-04-30T02:27:16.000Z,78.99
2023-04-30T02:28:15.000Z,79.31
2023-04-30T02:29:15.000Z,79.13
2023-04-30T02:30:16.000Z,79.12
2023-04-30T02:31:16.000Z,78.96
2023-04-30T02:32:16.000Z,78.97
2023-04-30T02:33:15.000Z,79.70
2023-04-30T02:34:15.000Z,79.08
2023-04-30T02:35:15.000Z,79.16
2023-04-30T02:36:15.000Z,79.03
2023-04-30T02:37:15.000Z,79.05
2023-04-30T02:38:15.000Z,79.01
2023-04-30T02:39:15.000Z,78.91
2023-04-30T02:40:15.000Z,78.02
2023-04-30T02:41:15.000Z,77.46
2023-04-30T02:42:15.000Z,77.25
2023-04-30T02:43:15.000Z,77.70
2023-04-30T02:44:15.000Z,77.72
2023-04-30T02:45:15.000Z,77.77
2023-04-30T02:46:16.000Z,78.22
2023-04-30T02:47:15.000Z,78.41
2023-04-30T02:48:15.000Z,78.19
2023-04-30T02:49:15.000Z,78.15
2023-04-30T02:50:15.000Z,78.37
2023-04-30T02:51:15.000Z,78.50
2023-04-30T02:52:15.000Z,78.34
2023-04-30T02:53:15.000Z,78.29
2023-04-30T02:54:15.000Z,78.18
2023-04-30T02:55:15.000Z,78.32
2023-04-30T02:56:15.000Z,78.67
2023-04-30T02:57:15.000Z,78.53
2023-04-30T02:58:15.000Z,78.56
2023-04-30T02:59:15.000Z,79.14
2023-04-30T03:00:16.000Z,80.03
2023-04-30T03:01:15.000Z,80.26
2023-04-30T03:02:19.000Z,80.07
2023-04-30T03:03:16.000Z,79.66
2023-04-30T03:04:16.000Z,79.40
2023-04-30T03:05:16.000Z,79.36
2023-04-30T03:06:16.000Z,79.27
2023-04-30T03:07:16.000Z,79.23
2023-04-30T03:08:16.000Z,79.21
2023-04-30T03:09:16.000Z,79.94
2023-04-30T03:10:17.000Z,79.58
2023-04-30T03:11:16.000Z,79.49
2023-04-30T03:12:16.000Z,79.29
2023-04-30T03:13:16.000Z,79.24
2023-04-30T03:14:16.000Z,79.20
2023-04-30T03:15:16.000Z,79.49
2023-04-30T03:16:17.000Z,79.21
2023-04-30T03:17:16.000Z,79.21
2023-04-30T03:18:16.000Z,79.14
2023-04-30T03:19:20.000Z,79.22
2023-04-30T03:20:16.000Z,79.54
2023-04-30T03:21:16.000Z,79.69
2023-04-30T03:22:18.000Z,79.57
2023-04-30T03:23:16.000Z,79.89
2023-04-30T03:24:16.000Z,79.47
2023-04-30T03:25:16.000Z,79.37
2023-04-30T03:26:16.000Z,79.63
2023-04-30T03:27:16.000Z,79.57
2023-04-30T03:28:16.000Z,79.27
2023-04-30T03:29:16.000Z,79.16
2023-04-30T03:30:16.000Z,79.33
2023-04-30T03:31:16.000Z,79.70
2023-04-30T03:32:16.000Z,79.73
2023-04-30T03:33:16.000Z,79.82
2023-04-30T03:34:15.000Z,80.63
2023-04-30T03:35:17.000Z,80.75
2023-04-30T03:36:15.000Z,80.77
2023-04-30T03:37:16.000Z,80.68
2023-04-30T03:38:16.000Z,80.68
2023-04-30T03:39:15.000Z,80.54
2023-04-30T03:40:15.000Z,80.23
2023-04-30T03:41:16.000Z,80.27
2023-04-30T03:42:15.000Z,80.34
2023-04-30T03:43:15.000Z,80.29
2023-04-30T03:44:15.000Z,80.10
2023-04-30T03:45:15.000Z,79.97
2023-04-30T03:46:15.000Z,79.86
2023-04-30T03:47:16.000Z,79.72
2023-04-30T03:48:16.000Z,79.76
2023-04-30T03:49:15.000Z,79.64
2023-04-30T03:50:16.000Z,79.60
2023-04-30T03:51:18.000Z,79.65
2023-04-30T03:52:16.000Z,79.70
2023-04-30T03:53:15.000Z,79.61
2023-04-30T03:54:15.000Z,79.75
2023-04-30T03:55:16.000Z,79.69
2023-04-30T03:56:15.000Z,79.67
2023-04-30T03:57:15.000Z,79.83
2023-04-30T03:58:16.000Z,80.05
2023-04-30T03:59:16.000Z,79.85
2023-04-30T04:00:16.000Z,79.97
2023-04-30T04:01:16.000Z,80.25
2023-04-30T04:02:16.000Z,80.01
2023-04-30T04:03:16.000Z,79.79
2023-04-30T04:04:15.000Z,79.65
2023-04-30T04:05:15.000Z,79.68
2023-04-30T04:06:15.000Z,79.65
2023-04-30T04:07:16.000Z,80.00
2023-04-30T04:08:15.000Z,80.12
2023-04-30T04:09:15.000Z,78.70
2023-04-30T04:10:15.000Z,79.71
2023-04-30T04:11:15.000Z,78.94
2023-04-30T04:12:15.000Z,79.09
2023-04-30T04:13:16.000Z,79.25
2023-04-30T04:14:15.000Z,79.20
2023-04-30T04:15:15.000Z,79.16
2023-04-30T04:16:15.000Z,78.74
2023-04-30T04:17:16.000Z,78.73
2023-04-30T04:18:15.000Z,78.82
2023-04-30T04:19:15.000Z,76.59
2023-04-30T04:20:16.000Z,76.83
2023-04-30T04:21:16.000Z,76.83
2023-04-30T04:22:15.000Z,77.01
2023-04-30T04:23:15.000Z,77.33
2023-04-30T04:24:15.000Z,77.39
2023-04-30T04:25:16.000Z,77.25
2023-04-30T04:26:18.000Z,77.19
2023-04-30T04:27:15.000Z,76.03
2023-04-30T04:28:15.000Z,76.63
2023-04-30T04:29:16.000Z,77.00
2023-04-30T04:30:16.000Z,77.17
2023-04-30T04:31:16.000Z,77.28
2023-04-30T04:32:15.000Z,77.09
2023-04-30T04:33:16.000Z,76.73
2023-04-30T04:34:15.000Z,76.98
2023-04-30T04:35:16.000Z,76.96
2023-04-30T04:36:15.000Z,76.88
2023-04-30T04:37:16.000Z,77.00
2023-04-30T04:38:15.000Z,76.59
2023-04-30T04:39:16.000Z,76.76
2023-04-30T04:40:15.000Z,76.54
2023-04-30T04:41:16.000Z,76.58
2023-04-30T04:42:16.000Z,76.18
2023-04-30T04:43:15.000Z,76.20
2023-04-30T04:44:16.000Z,76.05
2023-04-30T04:45:15.000Z,75.65
2023-04-30T04:46:15.000Z,75.35
2023-04-30T04:47:18.000Z,75.87
2023-04-30T04:48:16.000Z,75.81
2023-04-30T04:49:15.000Z,76.13
2023-04-30T04:50:16.000Z,75.81
2023-04-30T04:51:15.000Z,75.64
2023-04-30T04:52:15.000Z,75.91
2023-04-30T04:53:15.000Z,75.86
2023-04-30T04:54:15.000Z,75.77
2023-04-30T04:55:16.000Z,75.43
2023-04-30T04:56:15.000Z,75.66
2023-04-30T04:57:15.000Z,75.75
2023-04-30T04:58:15.000Z,75.73
2023-04-30T04:59:15.000Z,75.73
2023-04-30T05:00:17.000Z,76.08
2023-04-30T05:01:15.000Z,75.84
2023-04-30T05:02:15.000Z,75.90
2023-04-30T05:03:16.000Z,75.92
2023-04-30T05:04:15.000Z,75.84
2023-04-30T05:05:15.000Z,75.93
2023-04-30T05:06:15.000Z,75.91
2023-04-30T05:07:16.000Z,75.92
2023-04-30T05:08:15.000Z,75.90
2023-04-30T05:09:15.000Z,76.13
2023-04-30T05:10:15.000Z,76.15
2023-04-30T05:11:15.000Z,75.61
2023-04-30T05:12:15.000Z,75.85
2023-04-30T05:13:15.000Z,75.93
2023-04-30T05:14:15.000Z,75.75
2023-04-30T05:15:15.000Z,75.78
2023-04-30T05:16:15.000Z,75.90
2023-04-30T05:17:15.000Z,75.78
2023-04-30T05:18:15.000Z,75.62
2023-04-30T05:19:15.000Z,75.73
2023-04-30T05:20:15.000Z,75.80
2023-04-30T05:21:15.000Z,75.82
2023-04-30T05:22:15.000Z,75.94
2023-04-30T05:23:15.000Z,75.62
2023-04-30T05:24:16.000Z,75.61
2023-04-30T05:25:15.000Z,75.66
2023-04-30T05:26:15.000Z,75.74
2023-04-30T05:27:15.000Z,75.69
2023-04-30T05:28:15.000Z,75.81
2023-04-30T05:29:15.000Z,75.26
2023-04-30T05:30:15.000Z,75.34
2023-04-30T05:31:15.000Z,75.25
2023-04-30T05:32:15.000Z,75.55
2023-04-30T05:33:15.000Z,75.34
2023-04-30T05:34:15.000Z,74.70
2023-04-30T05:35:16.000Z,74.81
2023-04-30T05:36:16.000Z,74.99
2023-04-30T05:37:16.000Z,75.31
2023-04-30T05:38:15.000Z,75.33
2023-04-30T05:39:15.000Z,75.24
2023-04-30T05:40:16.000Z,75.01
2023-04-30T05:41:15.000Z,75.05
2023-04-30T05:42:15.000Z,74.86
2023-04-30T05:43:15.000Z,74.84
2023-04-30T05:44:15.000Z,74.68
2023-04-30T05:45:16.000Z,74.83
2023-04-30T05:46:15.000Z,74.95
2023-04-30T05:47:16.000Z,74.87
2023-04-30T05:48:15.000Z,74.83
2023-04-30T05:49:15.000Z,74.37
2023-04-30T05:50:15.000Z,74.53
2023-04-30T05:51:16.000Z,74.50
2023-04-30T05:52:16.000Z,74.71
2023-04-30T05:53:15.000Z,74.64
2023-04-30T05:54:16.000Z,74.63
2023-04-30T05:55:16.000Z,74.67
2023-04-30T05:56:16.000Z,74.47
2023-04-30T05:57:16.000Z,74.45
2023-04-30T05:58:16.000Z,74.54
2023-04-30T05:59:16.000Z,74.25
2023-04-30T06:00:16.000Z,73.87
2023-04-30T06:01:19.000Z,74.10
2023-04-30T06:02:15.000Z,74.29
2023-04-30T06:03:17.000Z,74.30
2023-04-30T06:04:16.000Z,74.05
2023-04-30T06:05:15.000Z,73.17
2023-04-30T06:06:15.000Z,73.14
2023-04-30T06:07:15.000Z,73.48
2023-04-30T06:08:15.000Z,73.64
2023-04-30T06:09:15.000Z,73.91
2023-04-30T06:10:15.000Z,73.70
2023-04-30T06:11:15.000Z,73.58
2023-04-30T06:12:15.000Z,73.62
2023-04-30T06:13:15.000Z,73.81
2023-04-30T06:14:16.000Z,74.05
2023-04-30T06:15:15.000Z,73.94
2023-04-30T06:16:15.000Z,74.06
2023-04-30T06:17:15.000Z,74.16
2023-04-30T06:18:15.000Z,72.07
2023-04-30T06:19:15.000Z,72.86
2023-04-30T06:20:15.000Z,73.39
2023-04-30T06:21:15.000Z,72.96
2023-04-30T06:22:15.000Z,73.21
2023-04-30T06:23:15.000Z,73.07
2023-04-30T06:24:15.000Z,73.04
2023-04-30T06:25:15.000Z,73.12
2023-04-30T06:26:15.000Z,72.70
2023-04-30T06:27:15.000Z,73.27
2023-04-30T06:28:15.000Z,72.38
2023-04-30T06:29:15.000Z,72.83
2023-04-30T06:30:15.000Z,72.68
2023-04-30T06:31:15.000Z,72.80
2023-04-30T06:32:15.000Z,73.15
2023-04-30T06:33:15.000Z,73.25
2023-04-30T06:34:17.000Z,72.33
2023-04-30T06:35:16.000Z,72.58
2023-04-30T06:36:16.000Z,72.32
2023-04-30T06:37:16.000Z,72.99
2023-04-30T06:38:16.000Z,72.85
2023-04-30T06:39:16.000Z,73.33
2023-04-30T06:40:16.000Z,73.58
2023-04-30T06:41:16.000Z,73.54
2023-04-30T06:42:16.000Z,73.56
2023-04-30T06:43:16.000Z,73.02
2023-04-30T06:44:16.000Z,72.54
2023-04-30T06:45:16.000Z,72.43
2023-04-30T06:46:16.000Z,71.95
2023-04-30T06:47:16.000Z,72.53
2023-04-30T06:48:16.000Z,71.85
2023-04-30T06:49:16.000Z,72.87
2023-04-30T06:50:16.000Z,72.63
2023-04-30T06:51:16.000Z,72.46
2023-04-30T06:52:16.000Z,72.65
2023-04-30T06:53:16.000Z,72.01
2023-04-30T06:54:16.000Z,71.77
2023-04-30T06:55:16.000Z,71.91
2023-04-30T06:56:16.000Z,72.25
2023-04-30T06:57:16.000Z,71.49
2023-04-30T06:58:17.000Z,71.25
2023-04-30T06:59:16.000Z,70.64
2023-04-30T07:00:16.000Z,69.92
2023-04-30T07:01:16.000Z,70.48
2023-04-30T07:02:16.000Z,71.18
2023-04-30T07:03:16.000Z,71.34
2023-04-30T07:04:16.000Z,71.40
2023-04-30T07:05:16.000Z,70.77
2023-04-30T07:06:15.000Z,70.89
2023-04-30T07:07:15.000Z,70.13
2023-04-30T07:08:15.000Z,69.39
2023-04-30T07:09:15.000Z,70.10
2023-04-30T07:10:15.000Z,69.86
2023-04-30T07:11:15.000Z,69.29
2023-04-30T07:12:15.000Z,69.26
2023-04-30T07:13:15.000Z,69.94
2023-04-30T07:14:15.000Z,70.11
2023-04-30T07:15:15.000Z,69.50
2023-04-30T07:16:15.000Z,69.52
2023-04-30T07:17:15.000Z,69.67
2023-04-30T07:18:15.000Z,68.85
2023-04-30T07:19:15.000Z,69.12
2023-04-30T07:20:15.000Z,69.02
2023-04-30T07:21:15.000Z,68.77
2023-04-30T07:22:15.000Z,68.13
2023-04-30T07:23:15.000Z,67.36
2023-04-30T07:24:15.000Z,68.12
2023-04-30T07:25:15.000Z,68.30
2023-04-30T07:26:15.000Z,68.54
2023-04-30T07:27:15.000Z,68.74
2023-04-30T07:28:15.000Z,68.69
2023-04-30T07:29:16.000Z,68.99
2023-04-30T07:30:15.000Z,68.58
2023-04-30T07:31:15.000Z,68.93
2023-04-30T07:32:15.000Z,68.94
2023-04-30T07:33:15.000Z,67.78
2023-04-30T07:34:15.000Z,67.42
2023-04-30T07:35:15.000Z,68.28
2023-04-30T07:36:15.000Z,68.12
2023-04-30T07:37:16.000Z,68.08
2023-04-30T07:38:17.000Z,67.92
2023-04-30T07:39:16.000Z,67.82
2023-04-30T07:40:15.000Z,68.26
2023-04-30T07:41:15.000Z,67.71
2023-04-30T07:42:15.000Z,67.41
2023-04-30T07:43:15.000Z,67.48
2023-04-30T07:44:16.000Z,66.87
2023-04-30T07:45:16.000Z,67.08
2023-04-30T07:46:16.000Z,67.64
2023-04-30T07:47:16.000Z,67.46
2023-04-30T07:48:16.000Z,67.30
2023-04-30T07:49:15.000Z,67.22
2023-04-30T07:50:16.000Z,67.44
2023-04-30T07:51:15.000Z,67.06
2023-04-30T07:52:16.000Z,67.30
2023-04-30T07:53:15.000Z,66.49
2023-04-30T07:54:16.000Z,67.00
2023-04-30T07:55:16.000Z,67.35
2023-04-30T07:56:15.000Z,66.72
2023-04-30T07:57:16.000Z,66.94
2023-04-30T07:58:15.000Z,66.66
2023-04-30T07:59:16.000Z,66.78
2023-04-30T08:00:16.000Z,66.66
2023-04-30T08:01:15.000Z,66.27
2023-04-30T08:02:16.000Z,66.17
2023-04-30T08:03:15.000Z,66.98
2023-04-30T08:04:15.000Z,66.87
2023-04-30T08:05:15.000Z,66.78
2023-04-30T08:06:15.000Z,67.02
2023-04-30T08:07:15.000Z,66.42
2023-04-30T08:08:16.000Z,66.52
2023-04-30T08:09:16.000Z,65.84
2023-04-30T08:10:16.000Z,65.54
2023-04-30T08:11:15.000Z,64.90
2023-04-30T08:12:16.000Z,64.97
2023-04-30T08:13:16.000Z,64.42
2023-04-30T08:14:15.000Z,65.53
2023-04-30T08:15:18.000Z,65.55
2023-04-30T08:16:15.000Z,65.19
2023-04-30T08:17:15.000Z,65.01
2023-04-30T08:18:15.000Z,65.29
2023-04-30T08:19:15.000Z,64.73
2023-04-30T08:20:16.000Z,64.26
2023-04-30T08:21:17.000Z,64.64
2023-04-30T08:22:16.000Z,64.71
2023-04-30T08:23:16.000Z,65.17
2023-04-30T08:24:15.000Z,65.54
2023-04-30T08:25:16.000Z,66.15
2023-04-30T08:26:16.000Z,66.11
2023-04-30T08:27:16.000Z,65.97
2023-04-30T08:28:16.000Z,65.95
2023-04-30T08:29:15.000Z,64.26
2023-04-30T08:30:16.000Z,64.25
2023-04-30T08:31:16.000Z,62.35
2023-04-30T08:32:17.000Z,62.95
2023-04-30T08:33:16.000Z,62.26
2023-04-30T08:34:16.000Z,62.66
2023-04-30T08:35:16.000Z,63.06
2023-04-30T08:36:15.000Z,64.13
2023-04-30T08:37:15.000Z,61.95
2023-04-30T08:38:16.000Z,62.03
2023-04-30T08:39:15.000Z,62.38
2023-04-30T08:40:15.000Z,64.02
2023-04-30T08:41:16.000Z,62.96
2023-04-30T08:42:19.000Z,63.12
2023-04-30T08:43:16.000Z,62.29
2023-04-30T08:44:18.000Z,61.13
2023-04-30T08:45:16.000Z,60.73
2023-04-30T08:46:16.000Z,60.40
2023-04-30T08:47:16.000Z,60.18
2023-04-30T08:48:17.000Z,59.50
2023-04-30T08:49:15.000Z,59.35
2023-04-30T08:50:15.000Z,58.45
2023-04-30T08:51:15.000Z,59.38
2023-04-30T08:52:17.000Z,59.76
2023-04-30T08:53:17.000Z,60.13
2023-04-30T08:54:17.000Z,58.25
2023-04-30T08:55:15.000Z,56.98
2023-04-30T08:56:15.000Z,57.07
2023-04-30T08:57:15.000Z,56.27
2023-04-30T08:58:15.000Z,55.87
2023-04-30T08:59:15.000Z,56.38
2023-04-30T09:00:15.000Z,57.18
2023-04-30T09:01:15.000Z,57.50
2023-04-30T09:02:15.000Z,56.80
2023-04-30T09:03:15.000Z,55.52
2023-04-30T09:04:15.000Z,56.44
2023-04-30T09:05:15.000Z,57.12
2023-04-30T09:06:16.000Z,56.76
2023-04-30T09:07:16.000Z,57.04
2023-04-30T09:08:17.000Z,56.13
2023-04-30T09:09:15.000Z,55.17
2023-04-30T09:10:17.000Z,54.73
2023-04-30T09:11:24.000Z,54.83
2023-04-30T09:12:17.000Z,54.18
2023-04-30T09:13:15.000Z,53.65
2023-04-30T09:14:22.000Z,54.38
2023-04-30T09:15:15.000Z,54.93
2023-04-30T09:16:15.000Z,56.13
2023-04-30T09:17:19.000Z,55.60
2023-04-30T09:18:16.000Z,55.64
2023-04-30T09:19:24.000Z,56.58
2023-04-30T09:20:16.000Z,56.55
2023-04-30T09:21:15.000Z,55.67
2023-04-30T09:22:20.000Z,53.68
2023-04-30T09:23:15.000Z,55.22
2023-04-30T09:24:15.000Z,54.65
2023-04-30T09:25:15.000Z,55.09
2023-04-30T09:26:24.000Z,56.41
2023-04-30T09:27:20.000Z,55.25
2023-04-30T09:28:15.000Z,54.04
2023-04-30T09:29:15.000Z,53.49
2023-04-30T09:30:29.000Z,52.71
2023-04-30T09:31:18.000Z,53.53
2023-04-30T09:32:15.000Z,52.70
2023-04-30T09:33:15.000Z,52.10
2023-04-30T09:34:15.000Z,52.34
2023-04-30T09:35:34.000Z,52.21
2023-04-30T09:36:15.000Z,52.42
2023-04-30T09:37:15.000Z,52.72
2023-04-30T09:38:25.000Z,52.07
2023-04-30T09:39:19.000Z,53.20
2023-04-30T09:40:15.000Z,53.42
2023-04-30T09:41:24.000Z,53.13
2023-04-30T09:42:17.000Z,52.79
2023-04-30T09:43:15.000Z,52.79
2023-04-30T09:44:25.000Z,53.80
2023-04-30T09:45:16.000Z,51.89
2023-04-30T09:46:18.000Z,52.39
2023-04-30T09:47:18.000Z,49.95
2023-04-30T09:48:21.000Z,50.55
2023-04-30T09:49:17.000Z,50.33
2023-04-30T09:50:17.000Z,49.22
2023-04-30T09:51:15.000Z,48.62
2023-04-30T09:52:17.000Z,47.35
2023-04-30T09:53:19.000Z,48.38
2023-04-30T09:54:17.000Z,49.25
2023-04-30T09:55:16.000Z,50.53
2023-04-30T09:56:19.000Z,50.65
2023-04-30T09:57:21.000Z,50.80
2023-04-30T09:58:17.000Z,51.53
2023-04-30T09:59:19.000Z,51.31
2023-04-30T10:00:17.000Z,51.50
2023-04-30T10:01:16.000Z,51.31
2023-04-30T10:02:19.000Z,51.29
2023-04-30T10:03:16.000Z,50.73
2023-04-30T10:04:17.000Z,50.31
2023-04-30T10:05:16.000Z,51.16
2023-04-30T10:06:20.000Z,51.82
2023-04-30T10:07:19.000Z,51.21
2023-04-30T10:08:23.000Z,50.75
2023-04-30T10:09:16.000Z,49.31
2023-04-30T10:10:15.000Z,50.98
2023-04-30T10:11:19.000Z,50.93
2023-04-30T10:12:24.000Z,51.09
2023-04-30T10:13:18.000Z,51.43
2023-04-30T10:14:17.000Z,51.02
2023-04-30T10:15:18.000Z,50.40
2023-04-30T10:16:25.000Z,51.62
2023-04-30T10:17:16.000Z,51.48
2023-04-30T10:18:26.000Z,51.83
2023-04-30T10:19:21.000Z,51.67
2023-04-30T10:20:15.000Z,51.26
2023-04-30T10:21:16.000Z,51.81
2023-04-30T10:22:16.000Z,52.63
2023-04-30T10:23:15.000Z,52.30
2023-04-30T10:24:19.000Z,52.18
2023-04-30T10:25:15.000Z,52.08
2023-04-30T10:26:15.000Z,51.98
2023-04-30T10:27:16.000Z,51.39
2023-04-30T10:28:15.000Z,49.53
2023-04-30T10:29:16.000Z,50.07
2023-04-30T10:30:16.000Z,50.90
2023-04-30T10:31:16.000Z,51.09
2023-04-30T10:32:16.000Z,51.67
2023-04-30T10:33:25.000Z,51.48
2023-04-30T10:34:32.000Z,51.51
2023-04-30T10:35:24.000Z,51.88
2023-04-30T10:36:24.000Z,51.61
2023-04-30T10:37:26.000Z,51.15
2023-04-30T10:38:21.000Z,50.10
2023-04-30T10:39:20.000Z,50.47
2023-04-30T10:40:17.000Z,50.45
2023-04-30T10:41:18.000Z,50.66
2023-04-30T10:42:16.000Z,51.04
2023-04-30T10:43:18.000Z,51.51
2023-04-30T10:44:21.000Z,51.11
2023-04-30T10:45:16.000Z,52.33
2023-04-30T10:46:21.000Z,51.88
2023-04-30T10:47:16.000Z,50.69
2023-04-30T10:48:16.000Z,51.09
2023-04-30T10:49:24.000Z,50.83
2023-04-30T10:50:16.000Z,51.06
2023-04-30T10:51:16.000Z,51.81
2023-04-30T10:52:27.000Z,52.28
2023-04-30T10:53:19.000Z,52.27
2023-04-30T10:54:30.000Z,51.99
2023-04-30T10:55:16.000Z,51.69
2023-04-30T10:56:29.000Z,51.78
2023-04-30T10:57:20.000Z,52.27
2023-04-30T10:58:24.000Z,52.45
2023-04-30T10:59:16.000Z,52.63
2023-04-30T11:00:23.000Z,52.40
2023-04-30T11:01:18.000Z,51.94
2023-04-30T11:02:16.000Z,52.08
2023-04-30T11:03:16.000Z,51.51
2023-04-30T11:04:15.000Z,51.58
2023-04-30T11:05:18.000Z,51.66
2023-04-30T11:06:21.000Z,51.43
2023-04-30T11:07:16.000Z,51.12
2023-04-30T11:08:16.000Z,51.83
2023-04-30T11:09:16.000Z,52.11
2023-04-30T11:10:20.000Z,51.70
2023-04-30T11:11:18.000Z,50.97
2023-04-30T11:12:19.000Z,51.37
2023-04-30T11:13:15.000Z,51.78
2023-04-30T11:14:19.000Z,51.79
2023-04-30T11:15:18.000Z,51.65
2023-04-30T11:16:15.000Z,52.06
2023-04-30T11:17:21.000Z,51.91
2023-04-30T11:18:17.000Z,51.74
2023-04-30T11:19:17.000Z,51.83
2023-04-30T11:20:21.000Z,52.04
2023-04-30T11:21:18.000Z,51.71
2023-04-30T11:22:17.000Z,51.86
2023-04-30T11:23:20.000Z,51.13
2023-04-30T11:24:18.000Z,51.94
2023-04-30T11:25:18.000Z,51.07
2023-04-30T11:26:15.000Z,50.90
2023-04-30T11:27:34.000Z,51.27
2023-04-30T11:28:22.000Z,51.80
2023-04-30T11:29:16.000Z,52.10
2023-04-30T11:30:16.000Z,51.85
2023-04-30T11:31:15.000Z,52.12
2023-04-30T11:32:20.000Z,51.19
2023-04-30T11:33:16.000Z,52.21
2023-04-30T11:34:15.000Z,52.58
2023-04-30T11:35:17.000Z,51.86
2023-04-30T11:36:16.000Z,51.84
2023-04-30T11:37:27.000Z,51.45
2023-04-30T11:38:16.000Z,51.22
2023-04-30T11:39:16.000Z,50.00
2023-04-30T11:40:15.000Z,50.05
2023-04-30T11:41:16.000Z,51.20
2023-04-30T11:42:17.000Z,50.94
2023-04-30T11:43:24.000Z,51.59
2023-04-30T11:44:25.000Z,51.20
2023-04-30T11:45:20.000Z,50.67
2023-04-30T11:46:18.000Z,49.45
2023-04-30T11:47:15.000Z,49.74
2023-04-30T11:48:15.000Z,50.12
2023-04-30T11:49:16.000Z,49.86
2023-04-30T11:50:17.000Z,50.10
2023-04-30T11:51:20.000Z,50.32
2023-04-30T11:52:19.000Z,50.97
2023-04-30T11:53:15.000Z,51.04
2023-04-30T11:54:16.000Z,50.98
2023-04-30T11:55:19.000Z,48.49
2023-04-30T11:56:22.000Z,49.69
2023-04-30T11:57:15.000Z,50.47
2023-04-30T11:58:15.000Z,51.62
2023-04-30T11:59:16.000Z,51.22
2023-04-30T12:00:20.000Z,51.38
2023-04-30T12:01:16.000Z,51.44
2023-04-30T12:02:15.000Z,51.01
2023-04-30T12:03:16.000Z,49.10
2023-04-30T12:04:15.000Z,49.51
2023-04-30T12:05:20.000Z,49.68
2023-04-30T12:06:21.000Z,49.03
2023-04-30T12:07:16.000Z,48.83
2023-04-30T12:08:17.000Z,48.91
2023-04-30T12:09:15.000Z,49.82
2023-04-30T12:10:17.000Z,50.10
2023-04-30T12:11:33.000Z,49.82
2023-04-30T12:12:25.000Z,49.57
2023-04-30T12:13:15.000Z,50.41
2023-04-30T12:14:15.000Z,50.18
2023-04-30T12:15:17.000Z,50.34
2023-04-30T12:16:15.000Z,49.99
2023-04-30T12:17:37.000Z,50.19
2023-04-30T12:18:15.000Z,49.79
2023-04-30T12:19:24.000Z,49.40
2023-04-30T12:20:15.000Z,50.22
2023-04-30T12:21:16.000Z,49.11
2023-04-30T12:22:15.000Z,48.93
2023-04-30T12:23:15.000Z,49.88
2023-04-30T12:24:17.000Z,49.80
2023-04-30T12:25:18.000Z,50.31
2023-04-30T12:26:16.000Z,49.66
2023-04-30T12:27:15.000Z,49.07
2023-04-30T12:28:15.000Z,50.07
2023-04-30T12:29:17.000Z,50.12
2023-04-30T12:30:19.000Z,50.08
2023-04-30T12:31:16.000Z,49.45
2023-04-30T12:32:17.000Z,49.75
2023-04-30T12:33:16.000Z,49.79
2023-04-30T12:34:17.000Z,49.91
2023-04-30T12:35:19.000Z,50.16
2023-04-30T12:36:15.000Z,50.41
2023-04-30T12:37:16.000Z,50.04
2023-04-30T12:38:15.000Z,50.32
2023-04-30T12:39:15.000Z,49.33
2023-04-30T12:40:20.000Z,49.49
2023-04-30T12:41:16.000Z,50.00
2023-04-30T12:42:17.000Z,50.16
2023-04-30T12:43:16.000Z,50.76
2023-04-30T12:44:23.000Z,50.04
2023-04-30T12:45:25.000Z,50.72
2023-04-30T12:46:25.000Z,50.63
2023-04-30T12:47:16.000Z,49.40
2023-04-30T12:48:16.000Z,49.30
2023-04-30T12:49:24.000Z,49.92
2023-04-30T12:50:15.000Z,49.72
2023-04-30T12:51:18.000Z,48.29
2023-04-30T12:52:15.000Z,49.62